Time;durP1;ratioP1;P1;durP2;ratioP2;P2;SDS_P1;SDS_P2;PMS_P1;PMS_P2;Temp;Humidity;BMP_temperature;BMP_pressure;BME280_temperature;BME280_humidity;BME280_pressure;Samples;Min_cycle;Max_cycle;Signal;HPM_P1;HPM_P2
2020/12/28 00:00:16;;;;;;;2.42;1.85;;;5.60;99.90;;;;;;5003105;28;20129;-83
2020/12/28 00:02:44;;;;;;;1.55;1.38;;;5.60;99.90;;;;;;5002715;28;20050;-82
2020/12/28 00:05:12;;;;;;;2.25;1.63;;;5.50;99.90;;;;;;5004647;28;20552;-81
2020/12/28 00:07:39;;;;;;;3.28;1.98;;;5.50;99.90;;;;;;5003897;28;20499;-82
2020/12/28 00:10:09;;;;;;;2.28;1.98;;;5.50;99.90;;;;;;5003348;28;20086;-83
2020/12/28 00:12:47;;;;;;;2.28;1.50;;;5.50;99.90;;;;;;5002297;28;20050;-82
2020/12/28 00:15:15;;;;;;;2.45;1.55;;;5.50;99.90;;;;;;5000816;28;20050;-81
2020/12/28 00:17:45;;;;;;;3.63;1.45;;;5.50;99.90;;;;;;5001681;28;20082;-80
2020/12/28 00:20:11;;;;;;;2.78;1.45;;;5.50;99.90;;;;;;5001675;28;20090;-80
2020/12/28 00:22:38;;;;;;;1.55;1.33;;;5.50;99.90;;;;;;5000284;28;20054;-80
2020/12/28 00:25:05;;;;;;;2.65;1.75;;;5.50;99.90;;;;;;5001909;28;20121;-79
2020/12/28 00:27:31;;;;;;;1.75;1.50;;;5.50;99.90;;;;;;5001508;28;20046;-81
2020/12/28 00:29:57;;;;;;;2.13;1.52;;;5.50;99.90;;;;;;5001135;28;20102;-80
2020/12/28 00:32:24;;;;;;;2.08;1.70;;;5.50;99.90;;;;;;5001107;28;20133;-80
2020/12/28 00:34:51;;;;;;;1.77;1.40;;;5.50;99.90;;;;;;5000752;28;20082;-80
2020/12/28 00:37:17;;;;;;;2.35;1.50;;;5.50;99.90;;;;;;5001982;28;20503;-79
2020/12/28 00:39:44;;;;;;;1.33;1.00;;;5.50;99.90;;;;;;5001214;28;20133;-80
2020/12/28 00:42:10;;;;;;;4.68;3.17;;;5.40;99.90;;;;;;5001764;28;20047;-81
2020/12/28 00:44:37;;;;;;;3.38;1.45;;;5.40;99.90;;;;;;5002696;28;20129;-81
2020/12/28 00:47:03;;;;;;;2.75;1.77;;;5.40;99.90;;;;;;5002710;28;20046;-80
2020/12/28 00:49:29;;;;;;;1.38;1.27;;;5.30;99.90;;;;;;5002286;28;20162;-80
2020/12/28 00:51:57;;;;;;;1.65;1.40;;;5.40;99.90;;;;;;5002119;28;20558;-81
2020/12/28 00:54:23;;;;;;;1.58;1.48;;;5.40;99.90;;;;;;5002217;28;20086;-80
2020/12/28 00:56:50;;;;;;;2.03;1.80;;;5.40;99.90;;;;;;5001982;28;20057;-80
2020/12/28 00:59:17;;;;;;;2.45;2.25;;;5.40;99.90;;;;;;5002219;28;20058;-81
2020/12/28 01:01:43;;;;;;;2.70;1.95;;;5.50;99.90;;;;;;5002252;28;20101;-81
2020/12/28 01:04:10;;;;;;;2.50;2.30;;;5.50;99.90;;;;;;5001805;28;20069;-81
2020/12/28 01:06:42;;;;;;;3.13;2.28;;;5.50;99.90;;;;;;4999537;28;20070;-81
2020/12/28 01:09:09;;;;;;;4.05;2.50;;;5.50;99.90;;;;;;5000393;28;20134;-80
2020/12/28 01:11:35;;;;;;;2.50;1.90;;;5.50;99.90;;;;;;5002603;28;20057;-81
2020/12/28 01:14:02;;;;;;;2.67;2.30;;;5.50;99.90;;;;;;5003347;28;20482;-81
2020/12/28 01:16:28;;;;;;;2.50;2.30;;;5.50;99.90;;;;;;5004369;28;20050;-80
2020/12/28 01:18:54;;;;;;;3.25;2.80;;;5.50;99.90;;;;;;5005505;28;20082;-80
2020/12/28 01:21:21;;;;;;;2.95;2.65;;;5.50;99.90;;;;;;5003420;28;20176;-80
2020/12/28 01:23:47;;;;;;;2.65;2.05;;;5.50;99.90;;;;;;5004366;28;20089;-81
2020/12/28 01:26:16;;;;;;;2.53;2.08;;;5.50;99.90;;;;;;5001581;28;20136;-81
2020/12/28 01:28:42;;;;;;;2.47;2.28;;;5.50;99.90;;;;;;5006006;28;20491;-80
2020/12/28 01:31:09;;;;;;;2.53;1.85;;;5.50;99.90;;;;;;5003649;28;20078;-82
2020/12/28 01:33:36;;;;;;;1.92;1.48;;;5.60;99.90;;;;;;5003932;28;20086;-81
2020/12/28 01:36:03;;;;;;;1.50;1.40;;;5.60;99.90;;;;;;5009316;28;20081;-81
2020/12/28 01:38:29;;;;;;;1.83;0.90;;;5.50;99.90;;;;;;5005839;28;20090;-82
2020/12/28 01:40:56;;;;;;;2.55;1.40;;;5.50;99.90;;;;;;5004801;28;20097;-82
2020/12/28 01:43:25;;;;;;;3.25;2.00;;;5.50;99.90;;;;;;5001309;28;20201;-82
2020/12/28 01:45:51;;;;;;;1.23;1.13;;;5.60;99.90;;;;;;5001634;28;20096;-82
2020/12/28 01:48:18;;;;;;;1.85;1.60;;;5.50;99.90;;;;;;5002196;28;20082;-81
2020/12/28 01:50:45;;;;;;;2.65;1.92;;;5.50;99.90;;;;;;5001006;28;20070;-82
2020/12/28 01:53:14;;;;;;;1.67;1.30;;;5.50;99.90;;;;;;5000718;28;20136;-82
2020/12/28 01:55:42;;;;;;;1.92;1.80;;;5.50;99.90;;;;;;4999755;28;20053;-81
2020/12/28 01:58:09;;;;;;;4.38;2.33;;;5.50;99.90;;;;;;5000224;28;20513;-82
2020/12/28 02:00:36;;;;;;;1.85;1.50;;;5.50;99.90;;;;;;5000519;28;20046;-81
2020/12/28 02:03:06;;;;;;;3.78;1.88;;;5.50;99.90;;;;;;4999991;28;20057;-81
2020/12/28 02:05:33;;;;;;;2.88;1.50;;;5.50;99.90;;;;;;5000103;28;20139;-81
2020/12/28 02:08:00;;;;;;;2.42;1.20;;;5.60;99.90;;;;;;4999283;28;20085;-81
2020/12/28 02:10:27;;;;;;;2.47;1.33;;;5.50;99.90;;;;;;4999904;28;20050;-81
2020/12/28 02:12:53;;;;;;;1.63;1.52;;;5.50;99.90;;;;;;4999173;28;20054;-81
2020/12/28 02:15:20;;;;;;;1.25;1.00;;;5.50;99.90;;;;;;5000175;28;20074;-81
2020/12/28 02:17:47;;;;;;;1.67;1.23;;;5.50;99.90;;;;;;4999286;28;20550;-81
2020/12/28 02:20:13;;;;;;;3.20;1.50;;;5.50;99.90;;;;;;4999380;28;20133;-80
2020/12/28 02:22:43;;;;;;;2.00;1.25;;;5.50;99.90;;;;;;4998945;28;20114;-80
2020/12/28 02:25:09;;;;;;;3.63;1.50;;;5.50;99.90;;;;;;4998692;28;20050;-80
2020/12/28 02:27:36;;;;;;;3.42;1.88;;;5.50;99.90;;;;;;4999279;28;20133;-80
2020/12/28 02:30:03;;;;;;;2.30;1.65;;;5.50;99.90;;;;;;5000651;28;20049;-80
2020/12/28 02:32:29;;;;;;;3.28;1.52;;;5.50;99.90;;;;;;5001557;28;20134;-80
2020/12/28 02:34:55;;;;;;;3.10;1.90;;;5.50;99.90;;;;;;5000125;28;20110;-81
2020/12/28 02:37:22;;;;;;;4.70;2.00;;;5.50;99.90;;;;;;4999939;28;20100;-81
2020/12/28 02:39:49;;;;;;;1.50;1.35;;;5.50;99.90;;;;;;4999580;28;20085;-83
2020/12/28 02:42:16;;;;;;;1.15;1.00;;;5.50;99.90;;;;;;4999509;28;20089;-82
2020/12/28 02:44:42;;;;;;;1.25;1.05;;;5.50;99.90;;;;;;5000347;28;20460;-83
2020/12/28 02:47:08;;;;;;;1.92;1.55;;;5.50;99.90;;;;;;5001281;28;20115;-82
2020/12/28 02:49:35;;;;;;;1.40;0.85;;;5.50;99.90;;;;;;5000426;28;20518;-83
2020/12/28 02:52:01;;;;;;;0.70;0.57;;;5.50;99.90;;;;;;4999778;28;20102;-83
2020/12/28 02:54:27;;;;;;;1.52;1.00;;;5.50;99.90;;;;;;4999840;28;20058;-83
2020/12/28 02:56:55;;;;;;;1.27;1.10;;;5.50;99.90;;;;;;5000368;28;20086;-83
2020/12/28 02:59:21;;;;;;;0.90;0.80;;;5.40;99.90;;;;;;5000115;28;20090;-81
2020/12/28 03:01:48;;;;;;;0.80;0.80;;;5.40;99.90;;;;;;4999228;28;20086;-82
2020/12/28 03:04:15;;;;;;;1.33;0.90;;;5.40;99.90;;;;;;4998543;28;20129;-82
2020/12/28 03:06:41;;;;;;;1.08;0.98;;;5.40;99.90;;;;;;4999439;28;20094;-80
2020/12/28 03:09:07;;;;;;;0.63;0.63;;;5.50;99.90;;;;;;4999283;28;20094;-81
2020/12/28 03:11:36;;;;;;;0.73;0.70;;;5.50;99.90;;;;;;4999612;28;20479;-83
2020/12/28 03:14:03;;;;;;;0.77;0.60;;;5.50;99.90;;;;;;5001072;28;20102;-83
2020/12/28 03:16:30;;;;;;;0.80;0.80;;;5.50;99.90;;;;;;5000609;28;20081;-82
2020/12/28 03:18:56;;;;;;;0.65;0.50;;;5.50;99.90;;;;;;4999514;28;20050;-81
2020/12/28 03:21:23;;;;;;;0.65;0.65;;;5.50;99.90;;;;;;4998191;28;20570;-81
2020/12/28 03:23:49;;;;;;;1.02;0.85;;;5.50;99.90;;;;;;4997524;28;20137;-81
2020/12/28 03:26:16;;;;;;;0.88;0.75;;;5.50;99.90;;;;;;4997162;28;20133;-82
2020/12/28 03:28:42;;;;;;;1.45;1.00;;;5.50;99.90;;;;;;4999814;28;20094;-82
2020/12/28 03:31:09;;;;;;;1.20;0.88;;;5.50;99.90;;;;;;4997783;28;20137;-81
2020/12/28 03:33:36;;;;;;;1.15;1.00;;;5.50;99.90;;;;;;4997475;28;20086;-82
2020/12/28 03:36:02;;;;;;;1.35;0.70;;;5.50;99.90;;;;;;4998786;28;20164;-82
2020/12/28 03:38:28;;;;;;;1.08;0.98;;;5.60;99.90;;;;;;4998498;28;20106;-82
2020/12/28 03:40:55;;;;;;;2.10;0.82;;;5.50;99.90;;;;;;4998836;28;20129;-80
2020/12/28 03:43:21;;;;;;;1.45;1.05;;;5.50;99.90;;;;;;4998445;28;20081;-82
2020/12/28 03:45:48;;;;;;;0.95;0.82;;;5.50;99.90;;;;;;5000682;28;20546;-82
2020/12/28 03:48:15;;;;;;;2.55;1.15;;;5.50;99.90;;;;;;5000816;28;20082;-81
2020/12/28 03:50:42;;;;;;;1.33;1.20;;;5.50;99.90;;;;;;4999570;28;20125;-81
2020/12/28 03:53:08;;;;;;;1.38;1.08;;;5.50;99.90;;;;;;4999459;28;20442;-82
2020/12/28 03:55:35;;;;;;;0.90;0.90;;;5.50;99.90;;;;;;4999558;28;20086;-81
2020/12/28 03:58:01;;;;;;;2.33;1.02;;;5.50;99.90;;;;;;4998488;28;20114;-81
2020/12/28 04:00:27;;;;;;;1.08;0.93;;;5.50;99.90;;;;;;4999105;28;20129;-81
2020/12/28 04:02:54;;;;;;;1.17;1.08;;;5.50;99.90;;;;;;4999426;28;20148;-82
2020/12/28 04:05:21;;;;;;;1.27;0.98;;;5.50;99.90;;;;;;4998996;28;20078;-81
2020/12/28 04:07:47;;;;;;;1.27;1.10;;;5.50;99.90;;;;;;4998348;28;20085;-82
2020/12/28 04:10:14;;;;;;;1.38;1.10;;;5.50;99.90;;;;;;4999093;28;20086;-82
2020/12/28 04:12:40;;;;;;;1.70;1.10;;;5.50;99.90;;;;;;4998959;28;20050;-82
2020/12/28 04:15:07;;;;;;;1.17;1.00;;;5.50;99.90;;;;;;4998902;28;20447;-84
2020/12/28 04:17:33;;;;;;;1.02;1.02;;;5.50;99.90;;;;;;4999208;28;20133;-84
2020/12/28 04:20:00;;;;;;;1.17;1.08;;;5.40;99.90;;;;;;4997513;28;20073;-82
2020/12/28 04:22:27;;;;;;;1.20;1.10;;;5.40;99.90;;;;;;4996258;28;20133;-84
2020/12/28 04:24:53;;;;;;;1.27;0.90;;;5.40;99.90;;;;;;4998592;28;20046;-83
2020/12/28 04:27:20;;;;;;;1.13;0.70;;;5.40;99.90;;;;;;4998937;28;20117;-83
2020/12/28 04:29:47;;;;;;;1.55;1.00;;;5.40;99.90;;;;;;4998544;28;20483;-82
2020/12/28 04:32:14;;;;;;;1.50;0.90;;;5.20;99.90;;;;;;4997694;28;20152;-83
2020/12/28 04:34:40;;;;;;;1.77;1.15;;;5.10;99.90;;;;;;5002748;28;20093;-83
2020/12/28 04:37:07;;;;;;;1.23;1.20;;;5.10;99.90;;;;;;5000214;28;20508;-83
2020/12/28 04:39:34;;;;;;;1.17;1.05;;;5.00;99.90;;;;;;4999451;28;20089;-83
2020/12/28 04:42:00;;;;;;;0.82;0.82;;;5.10;99.90;;;;;;5005584;28;20073;-82
2020/12/28 04:44:27;;;;;;;2.67;1.42;;;5.10;99.90;;;;;;5005165;28;20077;-83
2020/12/28 04:46:53;;;;;;;1.10;1.00;;;5.10;99.90;;;;;;5000945;28;20085;-82
2020/12/28 04:49:20;;;;;;;3.35;1.20;;;5.10;99.90;;;;;;5001754;28;20089;-82
2020/12/28 04:51:47;;;;;;;2.42;1.30;;;5.10;99.90;;;;;;5002288;28;20232;-82
2020/12/28 04:54:13;;;;;;;2.67;1.77;;;5.10;99.90;;;;;;5001943;28;20086;-82
2020/12/28 04:56:41;;;;;;;2.17;1.98;;;5.10;99.90;;;;;;5006482;28;20073;-83
2020/12/28 04:59:07;;;;;;;3.13;2.00;;;5.10;99.90;;;;;;5007084;28;20094;-81
2020/12/28 05:01:34;;;;;;;2.08;1.90;;;5.10;99.90;;;;;;5001039;28;20043;-81
2020/12/28 05:04:35;;;;;;;3.05;2.70;;;5.00;99.90;;;;;;4989069;28;20495;-82
2020/12/28 05:07:30;;;;;;;;;;;;;;;;;;;;;
2020/12/28 05:10:01;;;;;;;2.83;2.25;;;4.90;99.90;;;;;;4990946;28;20495;-83
2020/12/28 05:12:31;;;;;;;4.43;2.92;;;4.80;99.90;;;;;;4990933;28;20055;-82
2020/12/28 05:15:10;;;;;;;3.70;2.95;;;4.80;99.90;;;;;;4991008;28;20066;-83
2020/12/28 05:17:38;;;;;;;2.38;1.73;;;4.80;99.90;;;;;;4990851;28;20137;-83
2020/12/28 05:20:15;;;;;;;4.00;3.10;;;4.70;99.90;;;;;;4989196;28;20101;-83
2020/12/28 05:22:45;;;;;;;6.88;4.90;;;4.60;99.90;;;;;;4957241;28;20050;-79
2020/12/28 05:25:12;;;;;;;2.78;2.03;;;4.50;99.90;;;;;;4961816;28;20154;-81
2020/12/28 05:27:40;;;;;;;2.80;1.98;;;4.50;99.90;;;;;;4983472;28;20115;-80
2020/12/28 05:30:06;;;;;;;7.60;5.93;;;4.40;99.90;;;;;;4985447;28;20141;-80
2020/12/28 05:32:33;;;;;;;4.13;2.97;;;4.40;99.90;;;;;;4984879;28;20455;-81
2020/12/28 05:35:04;;;;;;;5.70;3.95;;;4.50;99.90;;;;;;4981853;28;20086;-80
2020/12/28 05:37:31;;;;;;;5.70;3.40;;;4.50;99.90;;;;;;4971698;28;20146;-80
2020/12/28 05:39:59;;;;;;;1.50;1.40;;;4.40;99.90;;;;;;4972828;28;20075;-80
2020/12/28 05:42:25;;;;;;;2.05;1.48;;;4.40;99.90;;;;;;4984686;28;20058;-80
2020/12/28 05:44:54;;;;;;;3.22;1.90;;;4.40;99.90;;;;;;4983980;28;20047;-82
2020/12/28 05:47:22;;;;;;;1.90;1.60;;;4.30;99.90;;;;;;4986563;28;20053;-80
2020/12/28 05:49:49;;;;;;;2.28;1.88;;;4.30;99.90;;;;;;4983336;28;20051;-78
2020/12/28 05:52:17;;;;;;;2.00;1.80;;;4.30;99.90;;;;;;4980945;28;20112;-80
2020/12/28 05:54:44;;;;;;;3.45;1.65;;;4.20;99.90;;;;;;4981860;28;20059;-82
2020/12/28 05:57:11;;;;;;;4.07;1.65;;;4.20;99.90;;;;;;4982404;28;20628;-80
2020/12/28 05:59:38;;;;;;;3.03;1.92;;;4.30;99.90;;;;;;4982290;28;20051;-80
2020/12/28 06:02:08;;;;;;;1.67;1.52;;;4.30;99.90;;;;;;4980698;28;20137;-79
2020/12/28 06:04:34;;;;;;;2.95;1.95;;;4.30;99.90;;;;;;4982217;28;20086;-80
2020/12/28 06:07:03;;;;;;;4.00;2.30;;;4.30;99.90;;;;;;4983120;28;20086;-80
2020/12/28 06:09:30;;;;;;;3.80;1.90;;;4.40;99.90;;;;;;4984416;28;20090;-80
2020/12/28 06:12:03;;;;;;;3.40;1.73;;;4.30;99.90;;;;;;4975361;28;20484;-80
2020/12/28 06:14:33;;;;;;;2.90;2.08;;;4.30;99.90;;;;;;4967331;28;20083;-81
2020/12/28 06:17:05;;;;;;;2.50;1.80;;;4.20;99.90;;;;;;4963599;29;20138;-81
2020/12/28 06:19:32;;;;;;;3.80;2.00;;;4.10;99.90;;;;;;4962176;28;20051;-81
2020/12/28 06:21:58;;;;;;;2.78;2.22;;;4.10;99.90;;;;;;4961333;28;20119;-81
2020/12/28 06:24:26;;;;;;;3.22;2.42;;;4.00;99.90;;;;;;4961385;28;20047;-81
2020/12/28 06:27:03;;;;;;;3.28;2.30;;;4.00;99.90;;;;;;4961692;29;20086;-81
2020/12/28 06:29:30;;;;;;;2.95;1.92;;;3.90;99.90;;;;;;4960887;28;20567;-82
2020/12/28 06:31:56;;;;;;;3.97;2.20;;;3.90;99.90;;;;;;4960756;29;20179;-82
2020/12/28 06:34:23;;;;;;;4.63;2.75;;;3.80;99.90;;;;;;4962852;28;20600;-81
2020/12/28 06:37:00;;;;;;;2.92;2.60;;;3.70;99.90;;;;;;4962552;28;20550;-82
2020/12/28 06:39:26;;;;;;;4.97;3.55;;;3.70;99.90;;;;;;4961038;29;20149;-80
2020/12/28 06:41:53;;;;;;;3.30;2.55;;;3.70;99.90;;;;;;4960358;29;20075;-82
2020/12/28 06:44:28;;;;;;;3.30;2.75;;;3.70;99.90;;;;;;4960307;28;20074;-82
2020/12/28 06:46:55;;;;;;;4.43;2.90;;;3.60;99.90;;;;;;4960845;29;20440;-82
2020/12/28 06:49:22;;;;;;;3.80;2.80;;;3.50;99.90;;;;;;4961835;28;20102;-81
2020/12/28 06:51:49;;;;;;;5.65;3.40;;;3.40;99.90;;;;;;4964349;29;20086;-81
2020/12/28 06:54:22;;;;;;;4.97;3.22;;;3.30;99.90;;;;;;4964489;28;20484;-80
2020/12/28 06:56:49;;;;;;;4.93;3.10;;;3.30;99.90;;;;;;4963031;29;20061;-81
2020/12/28 06:59:16;;;;;;;4.55;3.45;;;3.30;99.90;;;;;;4960489;29;20568;-82
2020/12/28 07:01:46;;;;;;;5.93;3.40;;;3.30;99.90;;;;;;4958991;28;20576;-81
2020/12/28 07:04:13;;;;;;;4.13;3.30;;;3.30;99.90;;;;;;4958494;28;20055;-81
2020/12/28 07:06:41;;;;;;;6.25;4.10;;;3.20;99.90;;;;;;4959240;29;20142;-79
2020/12/28 07:09:08;;;;;;;5.68;3.15;;;3.20;99.90;;;;;;4959109;29;20135;-81
2020/12/28 07:11:35;;;;;;;5.43;3.30;;;3.20;99.90;;;;;;4958858;29;20185;-80
2020/12/28 07:14:05;;;;;;;4.13;3.28;;;3.20;99.90;;;;;;4959105;29;20090;-80
2020/12/28 07:16:31;;;;;;;3.80;3.10;;;3.10;99.90;;;;;;4958474;28;20138;-81
2020/12/28 07:19:05;;;;;;;3.78;2.65;;;3.10;99.90;;;;;;4958800;28;20074;-80
2020/12/28 07:21:31;;;;;;;3.05;2.60;;;3.10;99.90;;;;;;4958531;29;20134;-81
2020/12/28 07:23:58;;;;;;;3.50;2.65;;;3.10;99.90;;;;;;4959693;29;20130;-81
2020/12/28 07:26:27;;;;;;;4.35;3.10;;;3.10;99.90;;;;;;4960430;28;20051;-81
2020/12/28 07:28:54;;;;;;;6.95;2.97;;;3.10;99.90;;;;;;4959904;29;20059;-80
2020/12/28 07:31:22;;;;;;;3.78;2.85;;;3.10;99.90;;;;;;4960968;29;20059;-81
2020/12/28 07:33:49;;;;;;;5.57;3.28;;;3.10;99.90;;;;;;4961782;29;20054;-82
2020/12/28 07:36:18;;;;;;;6.70;3.60;;;3.00;99.90;;;;;;4963896;28;20090;-82
2020/12/28 07:38:46;;;;;;;4.65;3.17;;;3.00;99.90;;;;;;4965336;29;20411;-82
2020/12/28 07:41:14;;;;;;;5.75;3.45;;;3.00;99.90;;;;;;4960917;29;20111;-80
2020/12/28 07:43:48;;;;;;;4.13;3.33;;;3.00;99.90;;;;;;4960489;29;20504;-81
2020/12/28 07:46:21;;;;;;;4.07;3.40;;;3.00;99.90;;;;;;4963623;28;20051;-82
2020/12/28 07:48:51;;;;;;;;;;;2.90;99.90;;;;;;4965894;28;20074;-79
2020/12/28 07:51:20;;;;;;;5.03;3.60;;;2.90;99.90;;;;;;4961151;29;19950;-81
2020/12/28 07:53:52;;;;;;;6.10;3.22;;;2.90;99.90;;;;;;4960651;29;20091;-83
2020/12/28 07:56:26;;;;;;;3.88;2.88;;;2.90;99.90;;;;;;4960849;28;20055;-81
2020/12/28 07:58:59;;;;;;;5.15;3.60;;;3.00;99.90;;;;;;4960745;28;20115;-83
2020/12/28 08:01:32;;;;;;;4.63;3.10;;;3.00;99.90;;;;;;4959201;29;20139;-80
2020/12/28 08:04:02;;;;;;;6.90;3.47;;;3.00;99.90;;;;;;4958523;29;20087;-80
2020/12/28 08:06:29;;;;;;;7.05;3.70;;;3.00;99.90;;;;;;4959712;28;20047;-80
2020/12/28 08:09:03;;;;;;;8.55;4.40;;;3.00;99.90;;;;;;4959613;29;20141;-82
2020/12/28 08:11:32;;;;;;;5.07;3.50;;;3.00;99.90;;;;;;4960060;29;20071;-82
2020/12/28 08:13:59;;;;;;;4.90;3.53;;;3.00;99.90;;;;;;4958923;29;20090;-82
2020/12/28 08:16:27;;;;;;;5.10;3.45;;;3.00;99.90;;;;;;4961266;28;20137;-82
2020/12/28 08:18:55;;;;;;;8.15;4.15;;;3.00;99.90;;;;;;4963762;29;20090;-83
2020/12/28 08:21:22;;;;;;;5.28;3.47;;;3.00;99.90;;;;;;4964151;29;20134;-83
2020/12/28 08:23:52;;;;;;;5.45;3.70;;;3.00;99.90;;;;;;4963674;29;20114;-83
2020/12/28 08:26:20;;;;;;;4.07;3.50;;;3.00;99.90;;;;;;4963258;28;20087;-82
2020/12/28 08:28:49;;;;;;;5.88;3.33;;;3.00;99.90;;;;;;4963019;29;20059;-82
2020/12/28 08:31:15;;;;;;;6.63;3.53;;;3.00;99.90;;;;;;4963521;29;20079;-82
2020/12/28 08:33:42;;;;;;;9.35;3.05;;;3.10;99.90;;;;;;4964170;29;20094;-82
2020/12/28 08:36:08;;;;;;;5.30;2.72;;;3.10;99.90;;;;;;4961844;28;20649;-81
2020/12/28 08:38:35;;;;;;;3.60;2.80;;;3.20;99.90;;;;;;4961323;29;20047;-79
2020/12/28 08:41:01;;;;;;;3.58;2.60;;;3.20;99.90;;;;;;4960325;29;20126;-78
2020/12/28 08:43:28;;;;;;;5.25;3.22;;;3.20;99.90;;;;;;4961806;29;20054;-81
2020/12/28 08:46:03;;;;;;;4.90;2.78;;;3.20;99.90;;;;;;4965506;28;20051;-81
2020/12/28 08:48:30;;;;;;;4.03;2.95;;;3.20;99.90;;;;;;4962474;29;20527;-80
2020/12/28 08:50:56;;;;;;;6.05;3.40;;;3.30;99.90;;;;;;4962559;29;20047;-84
2020/12/28 08:53:23;;;;;;;6.63;3.53;;;3.30;99.90;;;;;;4962012;29;20079;-81
2020/12/28 08:56:00;;;;;;;3.88;3.20;;;3.40;99.90;;;;;;4963751;28;20051;-81
2020/12/28 08:58:26;;;;;;;6.95;3.42;;;3.40;99.90;;;;;;4964809;29;20563;-80
2020/12/28 09:00:53;;;;;;;4.10;3.28;;;3.40;99.90;;;;;;4962527;28;20079;-81
2020/12/28 09:03:20;;;;;;;5.03;3.80;;;3.50;99.90;;;;;;4963664;29;20562;-81
2020/12/28 09:05:47;;;;;;;5.07;3.20;;;3.40;99.90;;;;;;4963873;28;20047;-82
2020/12/28 09:08:13;;;;;;;8.15;3.40;;;3.50;99.90;;;;;;4963942;29;20051;-83
2020/12/28 09:10:40;;;;;;;4.50;3.30;;;3.40;99.90;;;;;;4964848;29;20423;-81
2020/12/28 09:13:06;;;;;;;4.30;3.40;;;3.50;99.90;;;;;;4962874;29;20090;-81
2020/12/28 09:15:33;;;;;;;5.10;3.10;;;3.50;99.90;;;;;;4963607;28;20051;-81
2020/12/28 09:17:59;;;;;;;4.68;3.35;;;3.60;99.90;;;;;;4962311;28;20086;-83
2020/12/28 09:20:26;;;;;;;5.78;3.15;;;3.70;99.90;;;;;;4959842;28;20103;-82
2020/12/28 09:22:53;;;;;;;9.05;3.40;;;3.70;99.90;;;;;;4963310;29;20082;-83
2020/12/28 09:25:19;;;;;;;5.35;2.88;;;3.80;99.90;;;;;;4962958;28;20134;-82
2020/12/28 09:27:45;;;;;;;7.38;3.05;;;3.80;99.90;;;;;;4977206;28;20074;-82
2020/12/28 09:30:12;;;;;;;6.88;3.50;;;3.80;99.90;;;;;;4980932;28;20117;-82
2020/12/28 09:32:39;;;;;;;5.80;2.90;;;3.80;99.90;;;;;;4979777;28;20284;-81
2020/12/28 09:35:05;;;;;;;5.63;3.00;;;3.80;99.90;;;;;;4980387;28;20160;-81
2020/12/28 09:37:33;;;;;;;4.63;2.90;;;3.90;99.90;;;;;;4979627;28;20058;-82
2020/12/28 09:39:59;;;;;;;6.35;3.17;;;3.90;99.90;;;;;;4968349;28;20142;-83
2020/12/28 09:42:25;;;;;;;4.95;3.28;;;3.90;99.90;;;;;;4964869;28;20058;-81
2020/12/28 09:44:52;;;;;;;4.00;2.92;;;4.00;99.90;;;;;;4961076;28;20089;-81
2020/12/28 09:47:18;;;;;;;9.23;4.72;;;4.00;99.90;;;;;;4976468;28;20051;-80
2020/12/28 09:49:45;;;;;;;4.63;3.35;;;4.10;99.90;;;;;;4977568;28;20082;-80
2020/12/28 09:52:11;;;;;;;5.85;3.30;;;4.10;99.90;;;;;;4977413;28;20205;-80
2020/12/28 09:54:39;;;;;;;6.38;3.83;;;4.00;99.90;;;;;;4978659;28;20130;-81
2020/12/28 09:57:06;;;;;;;5.00;3.95;;;4.00;99.90;;;;;;4981625;28;20062;-80
2020/12/28 09:59:37;;;;;;;6.53;4.15;;;3.90;99.90;;;;;;4981666;28;20054;-83
2020/12/28 10:02:04;;;;;;;8.07;4.25;;;3.90;99.90;;;;;;4981108;28;20051;-80
2020/12/28 10:04:30;;;;;;;5.78;4.13;;;3.80;99.90;;;;;;4980020;28;20133;-81
2020/12/28 10:06:57;;;;;;;4.85;3.70;;;3.80;99.90;;;;;;4982406;28;20118;-81
2020/12/28 10:09:24;;;;;;;7.05;4.30;;;3.80;99.90;;;;;;4983304;28;20086;-80
2020/12/28 10:11:52;;;;;;;8.48;4.53;;;3.80;99.90;;;;;;4982178;28;20042;-82
2020/12/28 10:14:19;;;;;;;4.72;3.97;;;3.90;99.90;;;;;;4984882;28;20173;-81
2020/12/28 10:16:45;;;;;;;6.13;4.47;;;3.90;99.90;;;;;;4985465;28;20053;-82
2020/12/28 10:19:12;;;;;;;5.28;4.13;;;4.00;99.90;;;;;;4984203;28;20580;-83
2020/12/28 10:21:38;;;;;;;6.85;4.35;;;4.00;99.90;;;;;;4983705;28;20106;-80
2020/12/28 10:24:05;;;;;;;6.57;4.70;;;4.10;99.90;;;;;;4985620;28;20046;-80
2020/12/28 10:26:31;;;;;;;6.65;4.38;;;4.10;99.90;;;;;;4985420;28;20046;-81
2020/12/28 10:28:59;;;;;;;5.97;3.95;;;4.20;99.90;;;;;;4984548;28;20514;-81
2020/12/28 10:31:26;;;;;;;6.47;3.70;;;4.30;99.90;;;;;;4984549;28;20455;-83
2020/12/28 10:33:53;;;;;;;6.10;3.47;;;4.40;99.90;;;;;;4981970;28;20097;-82
2020/12/28 10:36:23;;;;;;;6.07;3.38;;;4.50;99.90;;;;;;4979237;28;20090;-81
2020/12/28 10:38:51;;;;;;;4.35;3.10;;;4.50;99.90;;;;;;4979021;28;20050;-82
2020/12/28 10:41:24;;;;;;;3.92;2.83;;;4.60;99.90;;;;;;4980188;28;20077;-82
2020/12/28 10:43:50;;;;;;;4.65;2.85;;;4.70;99.90;;;;;;4981754;28;20046;-82
2020/12/28 10:46:17;;;;;;;3.70;2.90;;;4.60;99.90;;;;;;4980302;28;20059;-82
2020/12/28 10:48:44;;;;;;;4.00;2.90;;;4.70;99.90;;;;;;4978341;28;20137;-83
2020/12/28 10:51:11;;;;;;;3.92;2.95;;;4.70;99.90;;;;;;4979730;28;20074;-82
2020/12/28 10:53:38;;;;;;;3.72;2.97;;;4.80;99.90;;;;;;4978532;28;20055;-80
2020/12/28 10:56:05;;;;;;;5.18;2.95;;;4.80;99.90;;;;;;4977312;28;20051;-81
2020/12/28 10:58:32;;;;;;;3.47;2.65;;;4.80;99.90;;;;;;4976345;28;20569;-82
2020/12/28 11:00:58;;;;;;;4.15;2.95;;;4.80;99.90;;;;;;4981820;28;20110;-82
2020/12/28 11:03:25;;;;;;;3.95;3.03;;;4.90;99.90;;;;;;4979007;28;20086;-82
2020/12/28 11:05:52;;;;;;;4.80;3.00;;;4.90;99.90;;;;;;4973733;28;20054;-82
2020/12/28 11:08:18;;;;;;;4.97;2.85;;;4.90;99.90;;;;;;4975087;28;20102;-82
2020/12/28 11:10:44;;;;;;;5.03;3.20;;;5.00;99.90;;;;;;4982011;28;20194;-82
2020/12/28 11:13:11;;;;;;;4.65;2.97;;;5.10;99.90;;;;;;4973880;28;20141;-81
2020/12/28 11:15:37;;;;;;;5.72;2.88;;;5.10;99.90;;;;;;4974548;28;20570;-81
2020/12/28 11:18:05;;;;;;;2.78;2.50;;;5.10;99.90;;;;;;4967895;28;20054;-81
2020/12/28 11:20:32;;;;;;;7.20;2.78;;;5.20;99.90;;;;;;4969791;28;20460;-83
2020/12/28 11:22:58;;;;;;;5.53;3.40;;;5.20;99.90;;;;;;4969829;28;20142;-83
2020/12/28 11:25:25;;;;;;;6.82;3.60;;;5.30;99.90;;;;;;4969535;28;20365;-82
2020/12/28 11:27:51;;;;;;;5.50;3.35;;;5.40;99.90;;;;;;4969266;28;20129;-82
2020/12/28 11:30:19;;;;;;;7.35;4.15;;;5.50;99.90;;;;;;4968967;28;20090;-82
2020/12/28 11:32:45;;;;;;;7.47;3.60;;;5.60;99.90;;;;;;4966347;28;20051;-83
2020/12/28 11:35:11;;;;;;;5.80;3.10;;;5.70;99.90;;;;;;4969378;28;20106;-82
2020/12/28 11:37:39;;;;;;;6.80;3.80;;;5.80;99.90;;;;;;4969536;28;20078;-82
2020/12/28 11:40:06;;;;;;;4.90;2.58;;;5.90;99.90;;;;;;4967587;28;20110;-81
2020/12/28 11:42:32;;;;;;;4.43;2.88;;;5.90;99.90;;;;;;4969456;28;20142;-82
2020/12/28 11:44:59;;;;;;;4.05;3.00;;;6.00;99.90;;;;;;4969770;28;20396;-82
2020/12/28 11:47:25;;;;;;;4.78;3.10;;;6.00;99.90;;;;;;4969522;28;20066;-83
2020/12/28 11:49:52;;;;;;;3.45;2.70;;;6.00;99.90;;;;;;4967237;28;20142;-81
2020/12/28 11:52:19;;;;;;;4.60;3.17;;;6.10;99.90;;;;;;4969597;28;20111;-82
2020/12/28 11:54:47;;;;;;;8.73;4.28;;;6.00;99.90;;;;;;4977271;28;20065;-81
2020/12/28 11:57:14;;;;;;;6.63;3.00;;;6.00;99.90;;;;;;4978571;28;20058;-82
2020/12/28 11:59:40;;;;;;;5.70;3.70;;;6.00;99.90;;;;;;4986618;28;20043;-83
2020/12/28 12:02:07;;;;;;;4.57;2.80;;;6.10;99.90;;;;;;4979985;28;20047;-81
2020/12/28 12:04:51;;;;;;;5.15;3.33;;;6.10;99.90;;;;;;4980832;28;20063;-80
2020/12/28 12:07:22;;;;;;;6.30;2.90;;;6.00;99.90;;;;;;4982856;28;20491;-80
2020/12/28 12:09:51;;;;;;;5.10;3.45;;;6.00;99.90;;;;;;4988144;28;20062;-80
2020/12/28 12:12:20;;;;;;;3.53;2.50;;;6.10;99.90;;;;;;4978546;28;20546;-83
2020/12/28 12:14:47;;;;;;;5.90;3.17;;;6.00;99.90;;;;;;4978246;28;20078;-82
2020/12/28 12:17:13;;;;;;;5.88;3.20;;;6.00;99.90;;;;;;4983223;28;20163;-84
2020/12/28 12:19:40;;;;;;;5.53;3.17;;;5.90;99.90;;;;;;4977438;28;20137;-82
2020/12/28 12:22:06;;;;;;;4.75;2.80;;;5.90;99.90;;;;;;4970417;28;20054;-82
2020/12/28 12:24:41;;;;;;;3.85;2.60;;;5.80;99.90;;;;;;4966015;28;20138;-82
2020/12/28 12:27:11;;;;;;;4.38;2.95;;;5.80;99.90;;;;;;4981535;28;20129;-81
2020/12/28 12:29:37;;;;;;;4.78;2.72;;;5.70;99.90;;;;;;4979819;28;20539;-81
2020/12/28 12:32:05;;;;;;;5.18;3.00;;;5.70;99.90;;;;;;4968430;28;20536;-81
2020/12/28 12:34:32;;;;;;;5.13;3.40;;;5.70;99.90;;;;;;4974209;28;20051;-80
2020/12/28 12:36:58;;;;;;;4.45;3.30;;;5.70;99.90;;;;;;4973386;28;20090;-81
2020/12/28 12:39:24;;;;;;;8.60;4.18;;;5.80;99.90;;;;;;4973477;28;20134;-81
2020/12/28 12:41:51;;;;;;;8.43;4.18;;;5.70;99.90;;;;;;4973078;28;20081;-80
2020/12/28 12:44:18;;;;;;;7.82;3.60;;;5.70;99.90;;;;;;4965931;28;20055;-81
2020/12/28 12:46:45;;;;;;;4.93;3.70;;;5.70;99.90;;;;;;4964939;28;20098;-83
2020/12/28 12:49:12;;;;;;;6.03;3.80;;;5.80;99.90;;;;;;4968762;28;20051;-81
2020/12/28 12:51:41;;;;;;;6.30;3.88;;;5.80;99.90;;;;;;4971304;28;20134;-80
2020/12/28 12:54:08;;;;;;;7.30;4.00;;;5.90;99.90;;;;;;4984072;28;20058;-80
2020/12/28 12:56:34;;;;;;;13.02;4.90;;;5.90;99.90;;;;;;4974197;28;20055;-81
2020/12/28 12:59:00;;;;;;;6.15;4.05;;;6.00;99.90;;;;;;4969982;28;20074;-81